Time;durP1;ratioP1;P1;durP2;ratioP2;P2;SDS_P1;SDS_P2;PMS_P1;PMS_P2;Temp;Humidity;BMP_temperature;BMP_pressure;BME280_temperature;BME280_humidity;BME280_pressure;Samples;Min_cycle;Max_cycle;Signal;HPM_P1;HPM_P2
2022/08/21 12:32:42;;;;;;;84.40;79.72;;;;;;;23.60;43.10;96696.47;5089915;28;20922;-59
2022/08/21 12:35:17;;;;;;;117.32;111.22;;;;;;;23.89;43.10;96701.25;5090074;28;20188;-57
2022/08/21 12:37:47;;;;;;;72.93;68.80;;;;;;;24.03;43.64;96691.94;5089811;28;20612;-56
2022/08/21 12:40:12;;;;;;;35.42;33.42;;;;;;;24.06;42.94;96685.19;5089407;28;20250;-53
2022/08/21 12:42:43;;;;;;;29.73;27.77;;;;;;;23.78;42.99;96687.38;5088965;28;20243;-54
2022/08/21 12:45:37;;;;;;;38.15;35.97;;;;;;;23.88;42.84;96681.72;5089462;28;20161;-58
2022/08/21 12:48:47;;;;;;;33.17;31.17;;;;;;;24.50;42.02;96680.59;5089404;28;20644;-53
2022/08/21 12:51:22;;;;;;;88.63;83.88;;;;;;;24.07;42.69;96677.94;5075303;28;20217;-54
2022/08/21 12:53:52;;;;;;;39.10;36.63;;;;;;;24.27;42.33;96672.75;5069021;28;20184;-52
2022/08/21 12:56:24;;;;;;;32.58;30.65;;;;;;;24.78;42.66;96673.75;5069366;28;20172;-53
2022/08/21 12:58:55;;;;;;;59.58;56.28;;;;;;;24.90;41.23;96681.97;5069145;28;20181;-57
2022/08/21 13:01:25;;;;;;;146.23;138.57;;;;;;;24.28;40.42;96681.59;5068892;28;20264;-58
2022/08/21 13:03:55;;;;;;;122.38;116.25;;;;;;;24.62;41.07;96686.91;5069056;28;20598;-56
2022/08/21 13:06:23;;;;;;;125.88;119.38;;;;;;;24.47;40.76;96682.03;5069561;28;20201;-64
2022/08/21 13:08:55;;;;;;;105.68;100.30;;;;;;;24.36;41.69;96684.25;5069458;28;20192;-58
2022/08/21 13:11:22;;;;;;;58.75;55.53;;;;;;;24.10;42.36;96679.97;5067855;28;20208;-59
2022/08/21 13:13:53;;;;;;;56.67;53.58;;;;;;;24.15;42.50;96677.94;5067850;28;20259;-67
2022/08/21 13:16:27;;;;;;;94.10;88.88;;;;;;;24.51;41.67;96680.28;5068643;28;20262;-64
2022/08/21 13:19:17;;;;;;;72.18;68.32;;;;;;;24.33;41.37;96673.38;5067922;28;20203;-65
2022/08/21 13:21:43;;;;;;;90.32;85.72;;;;;;;24.38;41.54;96674.00;5066681;28;20653;-66
2022/08/21 13:24:14;;;;;;;95.90;90.55;;;;;;;24.25;40.84;96677.63;5068482;28;20189;-64
2022/08/21 13:26:40;;;;;;;68.82;65.07;;;;;;;24.52;41.34;96679.16;5068675;28;20177;-66
2022/08/21 13:29:11;;;;;;;94.47;89.50;;;;;;;24.82;40.57;96663.97;5067162;28;20188;-64
2022/08/21 13:31:38;;;;;;;172.20;163.05;;;;;;;24.53;40.42;96671.91;5091005;28;20243;-64
2022/08/21 13:34:05;;;;;;;248.65;235.23;;;;;;;24.62;40.53;96668.13;5108599;28;20597;-64
2022/08/21 13:36:35;;;;;;;257.42;243.32;;;;;;;24.67;40.39;96664.50;5108848;28;20682;-64
2022/08/21 13:39:04;;;;;;;320.48;303.33;;;;;;;24.50;40.27;96665.31;5108893;28;20182;-64
2022/08/21 13:41:34;;;;;;;331.27;313.60;;;;;;;24.58;39.98;96671.75;5108690;28;20191;-65
2022/08/21 13:44:04;;;;;;;201.18;190.35;;;;;;;24.67;39.80;96659.13;5077132;28;20560;-63
2022/08/21 13:46:33;;;;;;;112.72;106.53;;;;;;;24.59;39.76;96662.59;5085697;28;20653;-64
2022/08/21 13:49:00;;;;;;;106.88;101.18;;;;;;;24.73;39.22;96661.31;5073959;28;20173;-64
2022/08/21 13:51:26;;;;;;;196.05;186.10;;;;;;;24.43;39.76;96660.44;5075651;28;20300;-64
2022/08/21 13:53:53;;;;;;;183.13;173.30;;;;;;;24.74;39.83;96659.44;5092836;28;20187;-64
2022/08/21 13:56:27;;;;;;;211.15;200.63;;;;;;;24.25;39.80;96658.09;5094691;28;20247;-64
2022/08/21 13:58:55;;;;;;;211.25;200.63;;;;;;;24.27;39.58;96658.56;5094472;28;20621;-64
2022/08/21 14:01:26;;;;;;;195.77;185.18;;;;;;;24.44;39.79;96659.34;5093083;28;20616;-63
2022/08/21 14:03:57;;;;;;;245.68;233.35;;;;;;;23.98;40.49;96651.16;5076892;28;20185;-58
2022/08/21 14:06:26;;;;;;;192.23;182.32;;;;;;;24.31;40.15;96654.16;5074287;28;20572;-59
2022/08/21 14:08:56;;;;;;;200.43;190.20;;;;;;;24.55;39.76;96648.28;5074433;28;20570;-59
2022/08/21 14:11:22;;;;;;;160.38;151.93;;;;;;;24.87;39.94;96655.75;5084288;28;20204;-60
2022/08/21 14:14:28;;;;;;;227.90;216.35;;;;;;;24.84;38.87;96653.72;5093914;28;20239;-60
2022/08/21 14:17:00;;;;;;;217.35;206.48;;;;;;;24.65;39.58;96646.03;5074587;28;20180;-59
2022/08/21 14:19:37;;;;;;;197.93;188.02;;;;;;;24.67;39.24;96643.03;5074181;28;20185;-60
2022/08/21 14:22:30;;;;;;;153.32;145.48;;;;;;;24.38;39.11;96638.38;5072852;28;20205;-60
2022/08/21 14:25:07;;;;;;;147.93;140.52;;;;;;;24.52;38.52;96638.97;5073641;28;20177;-59
2022/08/21 14:27:36;;;;;;;148.48;140.63;;;;;;;24.74;38.13;96643.34;5073751;28;20208;-60
2022/08/21 14:32:42;;;;;;;143.65;136.52;;;;;;;24.44;38.45;96629.06;5070994;28;20709;-60
2022/08/21 14:35:08;;;;;;;157.32;149.60;;;;;;;24.62;37.98;96635.19;5074046;28;20165;-57
2022/08/21 14:37:34;;;;;;;183.35;174.07;;;;;;;24.48;37.76;96632.69;5073984;28;20216;-57
2022/08/21 14:40:01;;;;;;;148.82;141.35;;;;;;;24.62;38.43;96629.81;5074178;28;20172;-59
2022/08/21 14:42:26;;;;;;;148.57;140.98;;;;;;;24.60;38.53;96629.34;5074267;28;20626;-59
2022/08/21 14:44:55;;;;;;;173.77;164.60;;;;;;;24.89;38.45;96624.06;5073539;28;20245;-60
2022/08/21 14:47:21;;;;;;;134.45;127.45;;;;;;;24.95;38.54;96625.47;5073595;28;20170;-59
2022/08/21 14:49:47;;;;;;;137.95;130.90;;;;;;;25.15;38.13;96624.72;5073868;28;20162;-59
2022/08/21 14:52:12;;;;;;;189.13;179.35;;;;;;;24.88;37.59;96624.34;5058716;28;20247;-61
2022/08/21 14:54:38;;;;;;;226.32;214.55;;;;;;;24.77;38.29;96621.25;5052736;28;20162;-63
2022/08/21 14:57:08;;;;;;;153.38;145.40;;;;;;;24.84;38.41;96621.53;5054378;28;20168;-62
2022/08/21 14:59:35;;;;;;;189.63;179.77;;;;;;;24.90;37.92;96617.59;5053667;28;20158;-63
2022/08/21 15:02:03;;;;;;;181.70;172.35;;;;;;;25.16;37.40;96622.81;5053318;28;20273;-62
2022/08/21 15:04:29;;;;;;;150.68;142.80;;;;;;;25.08;37.44;96620.97;5049370;28;20539;-61
2022/08/21 15:06:55;;;;;;;117.20;110.97;;;;;;;24.83;37.51;96610.03;5073318;28;20169;-63
2022/08/21 15:09:21;;;;;;;120.35;113.85;;;;;;;24.95;37.62;96605.91;5073620;28;20174;-62
2022/08/21 15:11:46;;;;;;;148.63;140.63;;;;;;;24.89;36.79;96610.66;5073515;28;20259;-62
2022/08/21 15:14:19;;;;;;;117.05;110.63;;;;;;;24.84;36.93;96616.19;5073033;28;20169;-62
2022/08/21 15:16:46;;;;;;;127.10;119.95;;;;;;;24.94;37.49;96610.47;5073287;28;20158;-61
2022/08/21 15:19:11;;;;;;;121.60;114.75;;;;;;;24.73;37.46;96613.06;5073193;28;20205;-63
2022/08/21 15:21:36;;;;;;;117.40;111.00;;;;;;;24.83;37.36;96614.59;5073011;28;20178;-61
2022/08/21 15:24:02;;;;;;;114.35;108.07;;;;;;;24.80;36.88;96605.28;5054434;28;20548;-62
2022/08/21 15:26:28;;;;;;;79.38;74.72;;;;;;;24.80;36.58;96607.97;5053045;28;20228;-61
2022/08/21 15:28:53;;;;;;;119.88;113.13;;;;;;;24.96;36.90;96600.22;5052811;28;20578;-63
2022/08/21 15:31:19;;;;;;;92.72;87.65;;;;;;;24.96;36.70;96597.53;5060684;28;20232;-62
2022/08/21 15:33:44;;;;;;;115.32;108.88;;;;;;;25.13;36.61;96602.03;5072647;28;20201;-62
2022/08/21 15:36:09;;;;;;;107.55;101.85;;;;;;;25.11;36.21;96596.19;5072009;28;20214;-62
2022/08/21 15:38:35;;;;;;;75.13;70.90;;;;;;;24.89;36.59;96599.16;5072627;28;20173;-61
2022/08/21 15:41:03;;;;;;;77.63;73.43;;;;;;;24.92;36.46;96591.22;5072743;28;20169;-62
2022/08/21 15:43:34;;;;;;;110.15;104.22;;;;;;;25.03;36.86;96586.28;5072323;28;20285;-62
2022/08/21 15:46:00;;;;;;;85.93;81.30;;;;;;;25.07;36.55;96585.34;5072568;28;20265;-62
2022/08/21 15:48:26;;;;;;;107.05;101.28;;;;;;;25.10;36.81;96583.88;5072857;28;20242;-62
2022/08/21 15:50:51;;;;;;;79.32;74.95;;;;;;;24.96;35.89;96583.34;5072314;28;20189;-62
2022/08/21 15:53:17;;;;;;;87.57;82.80;;;;;;;24.97;36.15;96579.53;5061295;28;20669;-60
2022/08/21 15:55:42;;;;;;;78.43;74.15;;;;;;;24.90;36.21;96582.75;5052988;28;20169;-62
2022/08/21 15:58:13;;;;;;;138.23;130.70;;;;;;;24.98;36.65;96576.53;5052121;28;20166;-59
2022/08/21 16:00:39;;;;;;;78.72;74.32;;;;;;;24.94;36.61;96572.94;5058530;28;20186;-61
2022/08/21 16:03:06;;;;;;;86.85;82.03;;;;;;;24.86;36.50;96568.34;5054584;28;20192;-60
2022/08/21 16:05:32;;;;;;;82.35;77.60;;;;;;;24.85;35.99;96574.84;5072571;28;20183;-60
2022/08/21 16:07:58;;;;;;;94.68;89.28;;;;;;;24.78;36.32;96578.03;5072791;28;20571;-59
2022/08/21 16:10:25;;;;;;;100.80;95.05;;;;;;;24.80;36.65;96573.13;5072951;28;20177;-61
2022/08/21 16:12:55;;;;;;;95.90;90.18;;;;;;;24.75;35.95;96581.34;5072689;28;20309;-62
2022/08/21 16:15:22;;;;;;;103.05;97.18;;;;;;;24.66;36.67;96571.78;5072373;28;20161;-62
2022/08/21 16:17:49;;;;;;;263.38;249.52;;;;;;;24.58;37.02;96575.25;5072791;28;20256;-60
2022/08/21 16:20:22;;;;;;;137.38;130.02;;;;;;;24.62;36.64;96570.84;5072500;28;20215;-62
2022/08/21 16:22:48;;;;;;;257.45;243.80;;;;;;;24.60;36.70;96571.16;5065978;28;20316;-69
2022/08/21 16:25:15;;;;;;;846.70;788.17;;;;;;;24.65;37.44;96562.16;5057750;28;20456;-66
2022/08/21 16:27:43;;;;;;;364.92;345.20;;;;;;;24.82;37.64;96568.22;5071636;28;20192;-67
2022/08/21 16:30:10;;;;;;;320.65;303.40;;;;;;;24.87;37.45;96561.88;5070782;28;20268;-67
2022/08/21 16:32:35;;;;;;;165.98;157.18;;;;;;;24.86;36.20;96554.94;5090297;28;20216;-65
2022/08/21 16:35:03;;;;;;;247.63;234.93;;;;;;;24.81;37.12;96555.13;5092181;28;20649;-67
2022/08/21 16:37:28;;;;;;;278.70;263.70;;;;;;;24.78;36.94;96555.78;5092025;28;20738;-62
2022/08/21 16:39:54;;;;;;;128.57;121.43;;;;;;;24.78;36.26;96558.47;5091886;28;20168;-60
2022/08/21 16:42:22;;;;;;;311.27;294.38;;;;;;;24.77;35.99;96560.38;5091797;28;20676;-60
2022/08/21 16:44:47;;;;;;;238.77;225.70;;;;;;;24.61;36.36;96555.88;5091261;28;20539;-60
2022/08/21 16:47:13;;;;;;;340.63;322.75;;;;;;;24.69;36.82;96553.13;5091672;28;20165;-60
2022/08/21 16:49:38;;;;;;;298.77;283.30;;;;;;;24.65;36.86;96549.53;5091783;28;20173;-60
2022/08/21 16:52:04;;;;;;;259.77;246.27;;;;;;;24.64;36.72;96547.16;5110828;28;20272;-60
2022/08/21 16:54:30;;;;;;;334.05;316.25;;;;;;;24.50;36.77;96542.03;5091504;28;20267;-60
2022/08/21 16:56:57;;;;;;;331.33;313.27;;;;;;;24.56;36.87;96538.06;5112464;28;20213;-60
2022/08/21 16:59:23;;;;;;;293.73;277.50;;;;;;;24.57;36.21;96545.00;5112295;28;20160;-61
2022/08/21 17:01:49;;;;;;;336.10;317.40;;;;;;;24.57;36.26;96541.53;5086668;28;20215;-66
2022/08/21 17:04:14;;;;;;;299.45;283.02;;;;;;;24.63;36.15;96537.56;5084871;28;20263;-60
2022/08/21 17:06:40;;;;;;;395.45;373.67;;;;;;;24.57;36.31;96536.97;5091618;28;20218;-60
2022/08/21 17:09:06;;;;;;;251.75;238.38;;;;;;;24.55;36.05;96535.72;5091658;28;20226;-60
2022/08/21 17:11:39;;;;;;;310.95;294.23;;;;;;;24.48;36.22;96538.88;5073236;28;20844;-60
2022/08/21 17:14:16;;;;;;;362.13;342.80;;;;;;;24.38;36.44;96533.88;5091686;28;20168;-60
2022/08/21 17:16:45;;;;;;;339.40;321.55;;;;;;;24.35;36.46;96540.66;5091184;28;20153;-60
2022/08/21 17:19:12;;;;;;;378.92;358.75;;;;;;;24.41;36.92;96543.94;5094804;28;20711;-60
2022/08/21 17:21:37;;;;;;;318.92;301.90;;;;;;;24.28;36.41;96542.28;5077738;28;20565;-61
2022/08/21 17:24:03;;;;;;;370.42;350.80;;;;;;;24.30;36.09;96546.19;5095548;28;20184;-60
2022/08/21 17:26:29;;;;;;;357.35;338.40;;;;;;;24.26;36.38;96545.28;5095761;28;20661;-61
2022/08/21 17:28:55;;;;;;;334.63;316.92;;;;;;;24.17;36.41;96541.03;5096007;28;20221;-60
2022/08/21 17:31:21;;;;;;;382.70;362.23;;;;;;;24.14;36.68;96547.00;5093845;28;20324;-60
2022/08/21 17:33:51;;;;;;;485.63;458.52;;;;;;;24.15;36.31;96543.22;5095832;28;20200;-57
2022/08/21 17:36:22;;;;;;;530.20;500.10;;;;;;;24.13;36.69;96540.84;5088673;28;20653;-60
2022/08/21 17:38:47;;;;;;;416.00;393.58;;;;;;;24.08;36.38;96535.66;5094622;28;20197;-59
2022/08/21 17:41:14;;;;;;;479.48;452.02;;;;;;;24.10;36.56;96543.38;5095561;28;20182;-61
2022/08/21 17:43:40;;;;;;;526.65;496.55;;;;;;;24.02;36.74;96540.41;5095613;28;20199;-59
2022/08/21 17:46:07;;;;;;;481.88;454.67;;;;;;;23.99;36.68;96534.91;5095714;28;20247;-59
2022/08/21 17:48:32;;;;;;;442.48;417.23;;;;;;;23.93;36.86;96536.19;5095596;28;20172;-61
2022/08/21 17:50:58;;;;;;;372.35;351.45;;;;;;;23.85;36.95;96545.03;5110961;28;20527;-60
2022/08/21 17:53:23;;;;;;;364.33;343.95;;;;;;;23.76;36.79;96552.25;5094375;28;20222;-60
2022/08/21 17:55:50;;;;;;;346.92;327.70;;;;;;;23.69;36.89;96542.03;5074584;28;20165;-60
2022/08/21 17:58:16;;;;;;;311.50;294.33;;;;;;;23.66;36.98;96542.69;5080598;28;20200;-60
2022/08/21 18:00:43;;;;;;;260.77;246.60;;;;;;;23.56;37.42;96549.16;5085663;28;20192;-60
2022/08/21 18:03:14;;;;;;;144.30;136.75;;;;;;;23.50;37.64;96545.03;5094817;28;20196;-60
2022/08/21 18:05:47;;;;;;;112.88;106.80;;;;;;;23.45;37.68;96552.41;5094462;28;20180;-60
2022/08/21 18:08:13;;;;;;;73.63;69.60;;;;;;;23.32;37.76;96548.78;5091644;28;20161;-60
2022/08/21 18:10:42;;;;;;;75.68;71.68;;;;;;;23.45;37.72;96549.75;5094653;28;20153;-59
2022/08/21 18:13:11;;;;;;;103.13;97.32;;;;;;;23.39;38.00;96545.66;5094469;28;20723;-60
2022/08/21 18:15:36;;;;;;;107.13;101.50;;;;;;;23.35;37.93;96547.38;5094697;28;20165;-62
2022/08/21 18:18:04;;;;;;;90.38;85.50;;;;;;;23.28;37.96;96555.06;5094047;28;20183;-59
2022/08/21 18:20:30;;;;;;;90.32;85.40;;;;;;;23.15;38.23;96552.22;5094247;28;20188;-59
2022/08/21 18:22:55;;;;;;;91.72;86.75;;;;;;;23.13;38.38;96553.63;5089050;28;20209;-59
2022/08/21 18:25:21;;;;;;;92.90;87.82;;;;;;;23.16;38.25;96551.13;5073978;28;20184;-58
2022/08/21 18:27:47;;;;;;;77.75;73.45;;;;;;;23.11;38.12;96550.50;5074000;28;20203;-57
2022/08/21 18:30:19;;;;;;;104.85;99.25;;;;;;;23.09;37.91;96556.16;5073156;28;20260;-59
2022/08/21 18:32:45;;;;;;;97.55;92.32;;;;;;;23.07;38.16;96552.22;5093803;28;20208;-58
2022/08/21 18:35:13;;;;;;;119.05;112.75;;;;;;;23.05;38.37;96557.88;5094266;28;20535;-66
2022/08/21 18:37:39;;;;;;;110.55;104.72;;;;;;;22.95;38.11;96562.72;5087025;28;21049;-60
2022/08/21 18:40:08;;;;;;;118.68;112.45;;;;;;;22.94;38.41;96569.16;5090293;28;20176;-59
2022/08/21 18:42:38;;;;;;;96.13;90.90;;;;;;;22.98;38.86;96570.13;5093471;28;20196;-60
2022/08/21 18:45:07;;;;;;;89.45;84.63;;;;;;;22.90;38.60;96566.34;5094231;28;20305;-60
2022/08/21 18:47:41;;;;;;;54.33;51.45;;;;;;;22.87;38.90;96568.81;5093813;28;20660;-59
2022/08/21 18:50:09;;;;;;;104.50;99.38;;;;;;;22.84;39.33;96567.56;5093547;28;20582;-60
2022/08/21 18:52:34;;;;;;;140.60;133.60;;;;;;;22.84;39.13;96570.25;5093106;28;20238;-59
2022/08/21 18:55:00;;;;;;;218.48;207.93;;;;;;;22.70;39.31;96570.31;5093487;28;20576;-57
2022/08/21 18:57:29;;;;;;;307.00;291.85;;;;;;;22.63;39.77;96569.97;5093571;28;20165;-57
2022/08/21 18:59:56;;;;;;;330.75;314.10;;;;;;;22.67;39.61;96570.94;5088540;28;20219;-57
2022/08/21 19:02:22;;;;;;;311.35;295.73;;;;;;;22.67;39.61;96564.81;5093059;28;20673;-59
2022/08/21 19:04:47;;;;;;;291.65;277.35;;;;;;;22.58;39.86;96572.78;5093504;28;20168;-59
2022/08/21 19:07:14;;;;;;;200.20;190.48;;;;;;;22.59;39.80;96577.03;5093318;28;20161;-57
2022/08/21 19:09:41;;;;;;;217.02;206.60;;;;;;;22.58;39.92;96574.66;5093305;28;20168;-59
2022/08/21 19:12:06;;;;;;;220.07;209.50;;;;;;;22.49;40.02;96577.31;5093180;28;20227;-58
2022/08/21 19:14:33;;;;;;;247.55;235.30;;;;;;;22.54;39.67;96577.16;5093415;28;20554;-60
2022/08/21 19:16:59;;;;;;;248.07;235.75;;;;;;;22.54;39.68;96579.06;5093710;28;20164;-58
2022/08/21 19:19:24;;;;;;;203.85;194.02;;;;;;;22.50;40.15;96586.13;5092717;28;20177;-59
2022/08/21 19:21:50;;;;;;;180.43;171.60;;;;;;;22.40;40.47;96587.19;5092537;28;20208;-59
2022/08/21 19:24:16;;;;;;;118.00;112.10;;;;;;;22.40;40.70;96587.94;5092776;28;20653;-56
2022/08/21 19:26:41;;;;;;;77.13;73.03;;;;;;;22.33;40.48;96586.81;5093221;28;20660;-57
2022/08/21 19:29:08;;;;;;;77.35;72.93;;;;;;;22.27;41.03;96585.38;5093324;28;20649;-58
2022/08/21 19:31:40;;;;;;;70.55;66.80;;;;;;;22.24;40.82;96585.97;5090876;28;20313;-59
2022/08/21 19:34:18;;;;;;;82.18;77.68;;;;;;;22.24;40.88;96591.31;5092945;28;20177;-54
2022/08/21 19:36:45;;;;;;;73.35;69.28;;;;;;;22.17;40.73;96583.75;5092340;28;20641;-55
2022/08/21 19:39:11;;;;;;;84.97;80.47;;;;;;;22.11;40.67;96592.19;5092625;28;20168;-53
2022/08/21 19:41:41;;;;;;;85.75;81.07;;;;;;;22.12;40.82;96594.56;5092036;28;20222;-55
2022/08/21 19:44:09;;;;;;;84.57;80.05;;;;;;;22.07;40.95;96597.31;5074836;28;20179;-56
2022/08/21 19:46:38;;;;;;;94.75;89.70;;;;;;;22.02;40.90;96596.66;5092880;28;20640;-58
2022/08/21 19:49:05;;;;;;;116.32;110.25;;;;;;;21.95;41.22;96595.22;5092975;28;20248;-59
2022/08/21 19:51:33;;;;;;;102.30;96.93;;;;;;;21.99;41.20;96595.41;5091951;28;20278;-60
2022/08/21 19:53:59;;;;;;;113.00;107.03;;;;;;;21.99;40.92;96595.41;5092545;28;20203;-58
2022/08/21 19:56:29;;;;;;;113.95;107.78;;;;;;;21.98;41.08;96591.16;5092576;28;20184;-58
2022/08/21 19:58:56;;;;;;;130.35;123.38;;;;;;;21.91;40.97;96591.53;5092648;28;20168;-57
2022/08/21 20:01:24;;;;;;;129.93;122.90;;;;;;;21.88;41.58;96594.03;5091973;28;20220;-57
2022/08/21 20:03:50;;;;;;;118.53;111.93;;;;;;;21.83;41.46;96599.50;5093281;28;20191;-56
2022/08/21 20:06:16;;;;;;;107.03;101.03;;;;;;;21.80;41.37;96595.53;5092565;28;20520;-59
2022/08/21 20:08:43;;;;;;;55.45;52.47;;;;;;;21.75;41.67;96594.88;5092354;28;20532;-59
2022/08/21 20:11:10;;;;;;;28.77;27.00;;;;;;;21.70;41.90;96595.00;5079284;28;20201;-56
2022/08/21 20:13:36;;;;;;;13.05;12.02;;;;;;;21.66;42.15;96591.34;5071983;28;20193;-59
2022/08/21 20:16:07;;;;;;;9.07;8.38;;;;;;;21.53;42.76;96601.75;5071882;28;20276;-59
2022/08/21 20:18:34;;;;;;;11.32;10.40;;;;;;;21.50;43.16;96598.91;5072110;28;20276;-58
2022/08/21 20:21:00;;;;;;;11.23;10.40;;;;;;;21.37;43.27;96595.19;5072958;28;20177;-60
2022/08/21 20:23:26;;;;;;;12.75;11.95;;;;;;;21.48;42.75;96603.75;5072661;28;20208;-59
2022/08/21 20:25:52;;;;;;;27.13;25.42;;;;;;;21.41;43.25;96595.38;5078370;28;20185;-57
2022/08/21 20:28:17;;;;;;;14.45;13.32;;;;;;;21.41;42.54;96598.81;5092552;28;20700;-56
2022/08/21 20:30:43;;;;;;;30.05;28.25;;;;;;;21.32;43.11;96597.19;5080374;28;20234;-58
2022/08/21 20:33:09;;;;;;;14.93;13.82;;;;;;;21.41;42.54;96598.81;5052443;28;20572;-56
2022/08/21 20:35:35;;;;;;;26.83;25.25;;;;;;;21.37;42.84;96594.41;5051901;28;20623;-60
2022/08/21 20:38:01;;;;;;;22.83;21.33;;;;;;;21.33;42.62;96590.75;5051404;28;20162;-57
2022/08/21 20:40:27;;;;;;;27.70;25.95;;;;;;;21.27;42.92;96595.41;5051097;28;20169;-58
2022/08/21 20:42:53;;;;;;;24.85;23.35;;;;;;;21.28;43.15;96585.53;5051136;28;20584;-57
2022/08/21 20:45:34;;;;;;;24.17;22.70;;;;;;;21.24;43.06;96598.66;5051267;28;20161;-58
2022/08/21 20:48:02;;;;;;;22.17;20.88;;;;;;;21.18;43.23;96593.75;5069577;28;20177;-57
2022/08/21 20:50:30;;;;;;;23.30;21.73;;;;;;;21.17;42.91;96595.63;5071872;28;20169;-59
2022/08/21 20:53:13;;;;;;;26.70;25.00;;;;;;;21.23;42.49;96598.97;5055436;28;20232;-58
2022/08/21 20:55:46;;;;;;;24.80;22.95;;;;;;;21.26;42.42;96593.03;5055839;28;20307;-60
2022/08/21 20:58:30;;;;;;;27.08;25.33;;;;;;;21.27;42.23;96599.94;5055382;28;20631;-57
2022/08/21 21:01:01;;;;;;;25.95;24.35;;;;;;;21.22;42.32;96595.53;5072930;28;20193;-59
2022/08/21 21:03:48;;;;;;;25.30;23.77;;;;;;;21.20;42.43;96591.56;5075385;28;20216;-60
2022/08/21 21:06:19;;;;;;;24.48;23.00;;;;;;;21.17;42.52;96592.19;5074114;28;20161;-59
2022/08/21 21:09:07;;;;;;;26.98;25.23;;;;;;;21.24;41.99;96600.53;5075338;28;20165;-58
2022/08/21 21:11:38;;;;;;;25.58;23.88;;;;;;;21.28;42.02;96593.53;5075441;28;20205;-59
2022/08/21 21:14:14;;;;;;;25.30;23.90;;;;;;;21.29;42.10;96592.47;5064030;28;20178;-57
2022/08/21 21:16:47;;;;;;;24.95;23.35;;;;;;;21.13;42.40;96587.41;5055677;28;20177;-54
2022/08/21 21:19:19;;;;;;;19.58;18.38;;;;;;;21.01;43.31;96594.34;5054195;28;20190;-54
2022/08/21 21:21:50;;;;;;;17.70;16.58;;;;;;;20.93;43.55;96595.81;5055004;28;20515;-55
2022/08/21 21:24:21;;;;;;;17.55;16.08;;;;;;;20.79;44.55;96594.25;5054686;28;20216;-56
2022/08/21 21:26:55;;;;;;;14.45;13.55;;;;;;;20.71;45.27;96593.06;5054756;28;20182;-56
2022/08/21 21:29:33;;;;;;;23.23;21.70;;;;;;;20.69;45.65;96588.00;5054827;28;20193;-55
2022/08/21 21:31:59;;;;;;;28.25;26.63;;;;;;;20.61;45.19;96591.38;5066771;28;20236;-59
2022/08/21 21:34:26;;;;;;;32.17;30.30;;;;;;;20.61;45.66;96591.38;5074891;28;20165;-57
2022/08/21 21:37:01;;;;;;;34.25;32.15;;;;;;;20.63;44.86;96586.53;5060138;28;20216;-58
2022/08/21 21:39:53;;;;;;;42.38;39.72;;;;;;;20.62;44.66;96582.28;5036948;28;20166;-59
2022/08/21 21:42:41;;;;;;;47.15;44.58;;;;;;;20.64;44.77;96589.97;5053803;28;20198;-57
2022/08/21 21:45:22;;;;;;;46.42;43.72;;;;;;;20.70;44.85;96586.94;5036314;28;20178;-57
2022/08/21 21:48:05;;;;;;;57.72;54.22;;;;;;;20.77;44.91;96588.41;5055118;28;20182;-59
2022/08/21 21:50:43;;;;;;;56.47;53.22;;;;;;;20.69;44.88;96584.56;5054734;28;20622;-56
2022/08/21 21:53:20;;;;;;;75.15;70.95;;;;;;;20.58;45.26;96583.16;5054505;28;20236;-59
2022/08/21 21:56:23;;;;;;;86.45;81.57;;;;;;;20.54;45.72;96584.84;5055055;28;20689;-59
2022/08/21 21:59:19;;;;;;;186.40;176.30;;;;;;;19.98;48.91;96587.66;5058412;28;20166;-58
2022/08/21 22:02:29;;;;;;;197.02;186.35;;;;;;;19.91;48.00;96586.16;5095089;28;20193;-57
2022/08/21 22:05:34;;;;;;;98.05;92.65;;;;;;;19.81;49.20;96586.31;5076170;28;20184;-60
2022/08/21 22:08:00;;;;;;;25.63;24.17;;;;;;;19.98;48.66;96585.00;5094894;28;20167;-57
2022/08/21 22:10:58;;;;;;;34.17;32.20;;;;;;;19.97;48.44;96584.22;5094986;28;20157;-57
2022/08/21 22:13:31;;;;;;;51.67;48.85;;;;;;;19.79;49.37;96591.13;5094625;28;20234;-58
2022/08/21 22:15:56;;;;;;;45.45;42.83;;;;;;;19.71;49.35;96591.81;5095038;28;20180;-59
2022/08/21 22:18:28;;;;;;;32.92;31.02;;;;;;;19.88;49.06;96589.41;5094787;28;20519;-58
2022/08/21 22:21:02;;;;;;;26.35;24.85;;;;;;;19.89;48.79;96590.22;5094804;28;20213;-55
2022/08/21 22:23:32;;;;;;;23.58;22.17;;;;;;;19.95;48.65;96594.34;5094539;28;20598;-56
2022/08/21 22:26:04;;;;;;;31.58;29.45;;;;;;;19.83;48.92;96589.50;5094583;28;20694;-58
2022/08/21 22:28:35;;;;;;;67.65;63.60;;;;;;;19.85;49.10;96587.31;5094554;28;20230;-58
2022/08/21 22:31:16;;;;;;;150.85;142.50;;;;;;;19.80;49.74;96589.28;5084973;28;20236;-58
2022/08/21 22:34:09;;;;;;;153.88;145.45;;;;;;;19.57;51.12;96595.47;5074499;28;20254;-57
2022/08/21 22:36:39;;;;;;;52.65;49.67;;;;;;;19.60;51.24;96589.59;5074135;28;20211;-58
2022/08/21 22:39:10;;;;;;;23.20;21.40;;;;;;;19.58;51.69;96597.84;5074212;28;20663;-59
2022/08/21 22:41:39;;;;;;;30.83;29.08;;;;;;;19.46;52.05;96597.47;5074109;28;20177;-59
2022/08/21 22:44:07;;;;;;;35.30;33.15;;;;;;;19.34;52.28;96599.75;5074022;28;20165;-58
2022/08/21 22:46:43;;;;;;;36.60;34.35;;;;;;;19.34;52.60;96597.09;5073981;28;20178;-58
2022/08/21 22:49:14;;;;;;;44.63;41.95;;;;;;;19.20;53.69;96597.00;5074191;28;20189;-58
2022/08/21 22:51:39;;;;;;;31.42;29.65;;;;;;;19.24;54.13;96595.34;5073972;28;20221;-58
2022/08/21 22:54:09;;;;;;;62.67;58.67;;;;;;;19.02;55.38;96595.13;5055327;28;20682;-55
2022/08/21 22:56:41;;;;;;;54.78;51.50;;;;;;;18.91;56.86;96601.63;5073693;28;20207;-57
2022/08/21 22:59:24;;;;;;;49.72;46.67;;;;;;;18.93;58.04;96599.47;5072706;28;20654;-58
2022/08/21 23:01:56;;;;;;;140.15;132.45;;;;;;;19.00;58.47;96600.69;5073591;28;20326;-57
2022/08/21 23:04:23;;;;;;;173.55;164.00;;;;;;;18.86;60.13;96601.69;5073892;28;20575;-56
2022/08/21 23:06:51;;;;;;;113.22;106.95;;;;;;;19.05;60.03;96597.22;5073592;28;20556;-56
2022/08/21 23:09:43;;;;;;;117.93;111.38;;;;;;;19.06;60.26;96591.59;5073746;28;20252;-58
2022/08/21 23:12:33;;;;;;;131.73;124.50;;;;;;;18.84;61.89;96590.53;5073135;28;20225;-59
2022/08/21 23:15:01;;;;;;;58.85;55.58;;;;;;;18.93;61.72;96597.63;5073011;28;20187;-58
2022/08/21 23:17:51;;;;;;;60.72;57.22;;;;;;;18.62;63.74;96594.50;5073292;28;20630;-55
2022/08/21 23:20:30;;;;;;;123.68;116.80;;;;;;;18.67;63.97;96585.69;5073117;28;20260;-58
2022/08/21 23:23:06;;;;;;;75.05;70.53;;;;;;;18.59;64.55;96581.81;5073183;28;20292;-58
2022/08/21 23:25:37;;;;;;;74.22;70.13;;;;;;;18.60;64.74;96586.06;5073237;28;20191;-56
2022/08/21 23:28:20;;;;;;;84.55;79.40;;;;;;;18.65;64.75;96582.53;5072975;28;20641;-56
2022/08/21 23:31:03;;;;;;;89.35;83.97;;;;;;;18.70;64.31;96582.50;5070536;28;20229;-58
2022/08/21 23:33:40;;;;;;;104.85;98.13;;;;;;;18.45;64.97;96586.16;5054952;28;20240;-56
2022/08/21 23:39:11;;;;;;;96.78;91.32;;;;;;;18.40;65.55;96583.56;5073126;28;20181;-55
2022/08/21 23:41:42;;;;;;;102.93;96.97;;;;;;;18.24;66.13;96580.28;5072801;28;20185;-55
2022/08/21 23:44:30;;;;;;;117.70;111.03;;;;;;;18.42;65.61;96577.97;5072744;28;20207;-56
2022/08/21 23:47:19;;;;;;;122.97;116.18;;;;;;;18.37;65.86;96581.47;5072692;28;20154;-55
2022/08/21 23:49:59;;;;;;;113.97;107.47;;;;;;;18.23;66.08;96580.53;5057321;28;20189;-55
2022/08/21 23:52:35;;;;;;;124.90;117.88;;;;;;;18.15;66.24;96574.00;5071962;28;20232;-53
2022/08/21 23:55:27;;;;;;;89.10;84.17;;;;;;;18.41;65.29;96579.03;5072724;28;20189;-53
2022/08/21 23:58:31;;;;;;;72.80;68.65;;;;;;;18.49;64.70;96583.75;5072540;28;20630;-54
